Sainte-Anne-De-Beaupre, Canada
Current Conditions -  °F | °C
As of 11:00 AM on Thursday 27 Nov 2014 (Local Time) from CYQB Reporting Station
Scattered Clouds Scattered Clouds  
Wind Chill: -5°   Ceiling: Unl
Heat Index: -2°   Visibility: 30mi
Dew Point: -11°   Wind: 5mph
Humidity: 51%   Direction: 300°WNW
Pressure: 29.98"   Gusts: NA
Location:  47.02°N, 70.93°W
Report Text: CYQB 271600Z 30004KT 260V320 30SM FEW035 FEW170 SCT240 M02/M11 A2998 RMK SC1AC1CI3 AC TR SLP157
Loading
Personal Weather Stations






























Interactive Weather Map New forecast layout! Learn more

10-Day Weather Forecast

Advertisements
Track Severe Weather on mobile